METAR Data
IDs: Format: Raw Decoded Include TAF

Data at: 1917 UTC 25 Oct 2021

EHDL 251855Z AUTO 18007KT 140V250 9999 FEW021 SCT059 OVC140 12/10 Q1016 BLU